Time;durP1;ratioP1;P1;durP2;ratioP2;P2;SDS_P1;SDS_P2;PMS_P1;PMS_P2;Temp;Humidity;BMP_temperature;BMP_pressure;BME280_temperature;BME280_humidity;BME280_pressure;Samples;Min_cycle;Max_cycle;Signal;HPM_P1;HPM_P2
2021/12/21 00:00:20;;;;;;;9.45;4.30;;;;;;;;;;4917896;29;20028;-64
2021/12/21 00:02:48;;;;;;;9.48;4.20;;;;;;;;;;4917740;29;20040;-63
2021/12/21 00:05:20;;;;;;;10.18;4.18;;;;;;;;;;4918061;29;20388;-63
2021/12/21 00:07:47;;;;;;;9.82;4.22;;;;;;;;;;4917787;29;20024;-63
2021/12/21 00:10:14;;;;;;;9.15;5.05;;;;;;;;;;4917966;29;20046;-64
2021/12/21 00:12:49;;;;;;;10.52;4.75;;;;;;;;;;4917507;29;20481;-63
2021/12/21 00:15:27;;;;;;;9.30;4.53;;;;;;;;;;4916176;29;20084;-63
2021/12/21 00:18:14;;;;;;;12.70;5.28;;;;;;;;;;4917446;29;20067;-63
2021/12/21 00:20:54;;;;;;;10.25;5.13;;;;;;;;;;4917676;29;20404;-63
2021/12/21 00:26:10;;;;;;;9.30;4.90;;;;;;;;;;4917854;29;20058;-64
2021/12/21 00:28:44;;;;;;;8.67;4.77;;;;;;;;;;4917715;29;20380;-62
2021/12/21 00:31:10;;;;;;;9.15;4.70;;;;;;;;;;4917338;29;20028;-63
2021/12/21 00:33:39;;;;;;;8.93;4.53;;;;;;;;;;4917505;29;20064;-64
2021/12/21 00:36:06;;;;;;;10.32;5.03;;;;;;;;;;4917362;29;20071;-64
2021/12/21 00:38:32;;;;;;;7.63;4.63;;;;;;;;;;4917337;29;20035;-63
2021/12/21 00:40:58;;;;;;;9.32;4.65;;;;;;;;;;4917383;29;20130;-64
2021/12/21 00:43:24;;;;;;;9.75;4.70;;;;;;;;;;4917066;29;20024;-64
2021/12/21 00:45:50;;;;;;;8.55;4.90;;;;;;;;;;4917320;29;20416;-63
2021/12/21 00:48:17;;;;;;;9.20;4.63;;;;;;;;;;4917126;29;20601;-63
2021/12/21 00:50:43;;;;;;;9.70;4.88;;;;;;;;;;4917017;29;20038;-64
2021/12/21 00:53:09;;;;;;;10.40;5.20;;;;;;;;;;4916142;29;20039;-63
2021/12/21 00:55:35;;;;;;;10.15;5.68;;;;;;;;;;4917225;29;20464;-63
2021/12/21 00:58:01;;;;;;;12.75;5.20;;;;;;;;;;4917162;29;20376;-63
2021/12/21 01:00:28;;;;;;;9.85;4.60;;;;;;;;;;4916764;29;20107;-63
2021/12/21 01:02:56;;;;;;;9.50;5.07;;;;;;;;;;4916860;29;20062;-63
2021/12/21 01:05:31;;;;;;;8.77;4.65;;;;;;;;;;4916928;29;20052;-63
2021/12/21 01:08:01;;;;;;;9.38;4.68;;;;;;;;;;4916690;29;20064;-63
2021/12/21 01:18:21;;;;;;;7.38;4.45;;;;;;;;;;4916810;29;20162;-63
2021/12/21 01:21:04;;;;;;;6.65;3.90;;;;;;;;;;4916487;29;20059;-63
2021/12/21 01:23:50;;;;;;;7.82;4.28;;;;;;;;;;4915948;29;20059;-63
2021/12/21 01:36:46;;;;;;;6.70;3.92;;;;;;;;;;4916139;29;20127;-61
2021/12/21 01:42:16;;;;;;;9.00;4.57;;;;;;;;;;4916256;29;20397;-62
2021/12/21 01:50:12;;;;;;;6.30;3.70;;;;;;;;;;4916111;29;20043;-62
2021/12/21 01:52:38;;;;;;;7.95;3.92;;;;;;;;;;4915989;29;20449;-62
2021/12/21 01:55:04;;;;;;;7.43;4.10;;;;;;;;;;4916072;29;20032;-62
2021/12/21 01:57:30;;;;;;;7.57;3.85;;;;;;;;;;4915892;29;20036;-62
2021/12/21 01:59:56;;;;;;;7.97;4.35;;;;;;;;;;4915925;29;20497;-62
2021/12/21 02:02:23;;;;;;;5.95;3.63;;;;;;;;;;4915984;29;20032;-62
2021/12/21 02:04:49;;;;;;;7.78;3.97;;;;;;;;;;4915066;29;20116;-62
2021/12/21 02:07:15;;;;;;;8.95;4.25;;;;;;;;;;4915594;29;20083;-61
2021/12/21 02:09:41;;;;;;;8.25;4.07;;;;;;;;;;4915885;29;20079;-62
2021/12/21 02:12:09;;;;;;;6.65;4.10;;;;;;;;;;4915676;29;20444;-62
2021/12/21 02:14:35;;;;;;;7.30;4.15;;;;;;;;;;4915613;29;20111;-62
2021/12/21 02:19:44;;;;;;;7.05;3.80;;;;;;;;;;4915557;29;20039;-62
2021/12/21 02:22:15;;;;;;;6.85;3.83;;;;;;;;;;4915198;29;20035;-62
2021/12/21 02:24:48;;;;;;;7.90;4.10;;;;;;;;;;4915481;29;20040;-61
2021/12/21 02:30:04;;;;;;;6.88;3.67;;;;;;;;;;4875090;29;20043;-62
2021/12/21 02:32:30;;;;;;;7.03;4.03;;;;;;;;;;4875698;29;20051;-62
2021/12/21 02:34:56;;;;;;;6.30;3.78;;;;;;;;;;4875538;29;20073;-62
2021/12/21 02:37:22;;;;;;;7.60;3.65;;;;;;;;;;4875335;29;20145;-62
2021/12/21 02:39:48;;;;;;;9.90;4.38;;;;;;;;;;4875525;29;20371;-62
2021/12/21 02:42:14;;;;;;;6.43;3.50;;;;;;;;;;4875291;29;20048;-61
2021/12/21 02:44:40;;;;;;;8.95;4.30;;;;;;;;;;4875426;29;20041;-62
2021/12/21 02:47:06;;;;;;;7.50;3.72;;;;;;;;;;4875419;29;20397;-62
2021/12/21 02:49:32;;;;;;;8.50;4.00;;;;;;;;;;4875462;29;20438;-62
2021/12/21 02:51:58;;;;;;;8.18;3.65;;;;;;;;;;4875357;29;20552;-62
2021/12/21 02:54:25;;;;;;;5.75;3.50;;;;;;;;;;4874973;29;20053;-62
2021/12/21 02:56:51;;;;;;;6.43;3.70;;;;;;;;;;4875236;29;20684;-62
2021/12/21 02:59:17;;;;;;;6.93;3.55;;;;;;;;;;4875203;29;20047;-62
2021/12/21 03:01:43;;;;;;;6.40;3.08;;;;;;;;;;4876199;29;20119;-62
2021/12/21 03:04:09;;;;;;;7.13;3.83;;;;;;;;;;4861623;29;20486;-62
2021/12/21 03:09:37;;;;;;;6.32;3.30;;;;;;;;;;4915107;29;20040;-61
2021/12/21 03:12:26;;;;;;;5.43;3.75;;;;;;;;;;4914584;29;20087;-63
2021/12/21 03:14:52;;;;;;;7.47;3.83;;;;;;;;;;4914715;29;20478;-63
2021/12/21 03:17:19;;;;;;;6.43;3.83;;;;;;;;;;4918363;29;20036;-62
2021/12/21 03:19:45;;;;;;;6.47;3.65;;;;;;;;;;4918695;29;20072;-62
2021/12/21 03:22:12;;;;;;;6.90;3.60;;;;;;;;;;4918706;29;20107;-62
2021/12/21 03:24:38;;;;;;;5.47;3.50;;;;;;;;;;4918544;29;20460;-62
2021/12/21 03:27:05;;;;;;;7.03;3.83;;;;;;;;;;4918533;29;20106;-62
2021/12/21 03:29:32;;;;;;;6.57;3.78;;;;;;;;;;4918499;29;20036;-62
2021/12/21 03:31:58;;;;;;;5.72;3.55;;;;;;;;;;4918295;29;20028;-62
2021/12/21 03:34:24;;;;;;;6.20;3.63;;;;;;;;;;4918590;29;20477;-61
2021/12/21 03:36:50;;;;;;;6.40;3.88;;;;;;;;;;4918412;29;20171;-62
2021/12/21 03:39:19;;;;;;;8.52;3.45;;;;;;;;;;4918709;29;20495;-62
2021/12/21 03:41:57;;;;;;;7.13;3.78;;;;;;;;;;4918512;29;20032;-62
2021/12/21 03:44:24;;;;;;;6.53;3.95;;;;;;;;;;4918450;29;20024;-62
2021/12/21 03:46:53;;;;;;;8.73;4.13;;;;;;;;;;4918236;29;20024;-63
2021/12/21 03:51:56;;;;;;;7.22;3.33;;;;;;;;;;4918232;29;20040;-62
2021/12/21 03:54:23;;;;;;;6.78;3.60;;;;;;;;;;4918070;29;20123;-62
2021/12/21 03:56:51;;;;;;;6.97;3.75;;;;;;;;;;4918038;29;20072;-62
2021/12/21 03:59:18;;;;;;;5.82;3.55;;;;;;;;;;4917959;29;20370;-62
2021/12/21 04:01:44;;;;;;;7.00;3.33;;;;;;;;;;4917775;29;20032;-62
2021/12/21 04:04:10;;;;;;;7.47;3.47;;;;;;;;;;4917960;29;20476;-62
2021/12/21 04:06:37;;;;;;;7.40;3.85;;;;;;;;;;4917941;29;20032;-62
2021/12/21 04:09:04;;;;;;;7.43;3.20;;;;;;;;;;4916600;29;20028;-62
2021/12/21 04:11:30;;;;;;;7.30;3.42;;;;;;;;;;4917694;29;20035;-62
2021/12/21 04:13:57;;;;;;;6.45;3.67;;;;;;;;;;4917931;29;20064;-62
2021/12/21 04:16:23;;;;;;;7.53;3.70;;;;;;;;;;4917629;29;20036;-62
2021/12/21 04:18:49;;;;;;;5.47;3.47;;;;;;;;;;4917552;29;20091;-62
2021/12/21 04:21:15;;;;;;;8.55;3.63;;;;;;;;;;4917773;29;20056;-62
2021/12/21 04:23:41;;;;;;;6.72;3.78;;;;;;;;;;4917237;29;20071;-62
2021/12/21 04:26:08;;;;;;;6.13;3.53;;;;;;;;;;4917625;29;20381;-62
2021/12/21 04:28:34;;;;;;;6.45;3.75;;;;;;;;;;4916574;29;20052;-62
2021/12/21 04:31:01;;;;;;;5.65;3.60;;;;;;;;;;4917242;29;20162;-62
2021/12/21 04:33:27;;;;;;;7.25;3.88;;;;;;;;;;4916091;29;20131;-62
2021/12/21 04:35:53;;;;;;;6.13;3.83;;;;;;;;;;4917283;29;20047;-61
2021/12/21 04:38:23;;;;;;;6.95;3.63;;;;;;;;;;4917324;29;20024;-62
2021/12/21 04:40:59;;;;;;;6.28;3.50;;;;;;;;;;4917308;29;20032;-62
2021/12/21 04:43:25;;;;;;;7.45;4.03;;;;;;;;;;4917411;29;20056;-62
2021/12/21 04:45:52;;;;;;;7.70;3.67;;;;;;;;;;4917206;29;20047;-62
2021/12/21 04:48:18;;;;;;;8.45;3.90;;;;;;;;;;4917302;29;20028;-62
2021/12/21 04:50:44;;;;;;;8.00;4.05;;;;;;;;;;4917292;29;20076;-62
2021/12/21 04:53:11;;;;;;;5.50;3.47;;;;;;;;;;4916964;29;20059;-62
2021/12/21 04:55:37;;;;;;;6.85;3.88;;;;;;;;;;4917033;29;20043;-62
2021/12/21 04:58:04;;;;;;;7.47;3.75;;;;;;;;;;4917283;29;20056;-61
2021/12/21 05:00:30;;;;;;;6.78;3.78;;;;;;;;;;4916663;29;20039;-62
2021/12/21 05:02:56;;;;;;;7.57;3.65;;;;;;;;;;4917091;29;20028;-62
2021/12/21 05:05:22;;;;;;;7.45;3.08;;;;;;;;;;4917214;29;20024;-62
2021/12/21 05:07:53;;;;;;;6.18;3.35;;;;;;;;;;4916975;29;20455;-62
2021/12/21 05:10:20;;;;;;;5.93;3.90;;;;;;;;;;4917092;29;20412;-62
2021/12/21 05:12:47;;;;;;;6.35;3.88;;;;;;;;;;4916776;29;20123;-62
2021/12/21 05:15:13;;;;;;;7.35;3.97;;;;;;;;;;4916448;29;20027;-62
2021/12/21 05:17:39;;;;;;;5.85;4.05;;;;;;;;;;4916397;29;20066;-62
2021/12/21 05:20:06;;;;;;;7.53;4.05;;;;;;;;;;4916735;29;20048;-63
2021/12/21 05:22:32;;;;;;;6.65;3.53;;;;;;;;;;4916289;29;20408;-62
2021/12/21 05:24:58;;;;;;;7.10;3.80;;;;;;;;;;4916564;29;20540;-62
2021/12/21 05:27:24;;;;;;;8.98;3.88;;;;;;;;;;4916459;29;20748;-62
2021/12/21 05:29:51;;;;;;;10.50;6.68;;;;;;;;;;4916123;29;20042;-62
2021/12/21 05:32:17;;;;;;;8.10;4.60;;;;;;;;;;4916251;29;20087;-61
2021/12/21 05:34:43;;;;;;;8.40;4.45;;;;;;;;;;4916323;29;20063;-62
2021/12/21 05:37:09;;;;;;;9.30;4.97;;;;;;;;;;4915959;29;20040;-62
2021/12/21 05:40:11;;;;;;;9.05;5.13;;;;;;;;;;4916117;29;20024;-62
2021/12/21 05:42:28;;;;;;;8.68;4.85;;;;;;;;;;4913914;29;20047;-63
2021/12/21 05:44:54;;;;;;;6.53;4.28;;;;;;;;;;4916046;29;20032;-62
2021/12/21 05:47:20;;;;;;;11.30;4.20;;;;;;;;;;4916217;29;20102;-62
2021/12/21 05:49:46;;;;;;;9.45;4.93;;;;;;;;;;4915997;29;20076;-62
2021/12/21 05:52:12;;;;;;;12.85;6.28;;;;;;;;;;4916014;29;20095;-62
2021/12/21 05:54:38;;;;;;;10.10;5.82;;;;;;;;;;4915762;29;20545;-61
2021/12/21 05:57:05;;;;;;;16.33;7.45;;;;;;;;;;4915963;29;20054;-62
2021/12/21 05:59:31;;;;;;;18.67;8.60;;;;;;;;;;4915670;29;20031;-62
2021/12/21 06:01:57;;;;;;;19.35;7.45;;;;;;;;;;4915452;29;20039;-62
2021/12/21 06:04:24;;;;;;;10.55;6.43;;;;;;;;;;4915876;29;20441;-62
2021/12/21 06:06:50;;;;;;;14.98;7.30;;;;;;;;;;4915723;29;20032;-61
2021/12/21 06:09:17;;;;;;;37.92;18.35;;;;;;;;;;4914290;29;20377;-60
2021/12/21 06:11:51;;;;;;;44.30;24.27;;;;;;;;;;4915585;29;20031;-62
2021/12/21 06:25:25;;;;;;;12.13;7.70;;;;;;;;;;4875935;29;20417;-62
2021/12/21 06:27:51;;;;;;;8.48;5.35;;;;;;;;;;4875639;29;20037;-62
2021/12/21 06:30:17;;;;;;;11.55;5.25;;;;;;;;;;4875257;29;20037;-63
2021/12/21 06:32:44;;;;;;;11.80;5.63;;;;;;;;;;4875173;29;20033;-63
2021/12/21 06:35:10;;;;;;;12.02;5.80;;;;;;;;;;4875102;29;20040;-63
2021/12/21 06:37:36;;;;;;;10.52;5.53;;;;;;;;;;4875155;29;20049;-62
2021/12/21 06:40:03;;;;;;;10.85;5.88;;;;;;;;;;4875138;29;20033;-63
2021/12/21 06:42:29;;;;;;;13.77;7.97;;;;;;;;;;4874881;29;20041;-62
2021/12/21 06:44:58;;;;;;;14.85;7.90;;;;;;;;;;4874892;29;20108;-62
2021/12/21 06:52:55;;;;;;;9.63;5.30;;;;;;;;;;4837651;29;20128;-63
2021/12/21 06:55:21;;;;;;;11.90;6.35;;;;;;;;;;4895765;29;20131;-63
2021/12/21 06:57:47;;;;;;;12.50;6.38;;;;;;;;;;4895864;29;20036;-64
2021/12/21 07:00:14;;;;;;;8.38;4.93;;;;;;;;;;4895318;29;20029;-63
2021/12/21 07:02:41;;;;;;;14.48;7.05;;;;;;;;;;4895746;29;20420;-62
2021/12/21 07:05:08;;;;;;;15.60;7.75;;;;;;;;;;4895587;29;20037;-62
2021/12/21 07:07:34;;;;;;;7.88;4.75;;;;;;;;;;4895329;29;20036;-63
2021/12/21 07:10:04;;;;;;;9.55;5.10;;;;;;;;;;4895739;29;20041;-64
2021/12/21 07:18:13;;;;;;;12.13;6.68;;;;;;;;;;4895332;29;20573;-63
2021/12/21 07:20:39;;;;;;;18.38;8.23;;;;;;;;;;4895877;29;20029;-63
2021/12/21 07:23:06;;;;;;;12.77;6.75;;;;;;;;;;4895291;29;20064;-63
2021/12/21 07:25:32;;;;;;;9.95;6.00;;;;;;;;;;4895649;29;20034;-63
2021/12/21 07:27:58;;;;;;;9.48;3.95;;;;;;;;;;4895770;29;20028;-63
2021/12/21 07:30:25;;;;;;;4.82;2.42;;;;;;;;;;4895465;29;20160;-63
2021/12/21 07:32:51;;;;;;;13.68;7.25;;;;;;;;;;4895525;29;20036;-64
2021/12/21 07:35:17;;;;;;;20.48;8.98;;;;;;;;;;4895437;29;20055;-64
2021/12/21 07:37:43;;;;;;;16.08;6.75;;;;;;;;;;4895296;29;20056;-64
2021/12/21 07:40:10;;;;;;;13.15;7.95;;;;;;;;;;4895498;29;20491;-63
2021/12/21 07:42:36;;;;;;;48.38;23.02;;;;;;;;;;4895241;29;20115;-63
2021/12/21 07:45:02;;;;;;;11.25;6.53;;;;;;;;;;4895719;29;20079;-63
2021/12/21 07:47:28;;;;;;;12.07;5.82;;;;;;;;;;4895541;29;20061;-64
2021/12/21 07:49:54;;;;;;;15.73;8.40;;;;;;;;;;4895620;29;20024;-63
2021/12/21 07:52:20;;;;;;;17.85;9.07;;;;;;;;;;4895521;29;20793;-62
2021/12/21 07:54:46;;;;;;;14.90;8.05;;;;;;;;;;4895711;29;20652;-62
2021/12/21 07:57:13;;;;;;;14.60;8.35;;;;;;;;;;4894214;29;20100;-62
2021/12/21 07:59:40;;;;;;;16.30;7.75;;;;;;;;;;4897441;29;20032;-62
2021/12/21 08:02:06;;;;;;;13.63;8.45;;;;;;;;;;4897008;29;20063;-64
2021/12/21 08:04:34;;;;;;;16.73;9.23;;;;;;;;;;4895321;29;20052;-63
2021/12/21 08:07:07;;;;;;;15.52;7.95;;;;;;;;;;4898653;29;20060;-62
2021/12/21 08:09:39;;;;;;;10.77;6.32;;;;;;;;;;4895159;29;20115;-62
2021/12/21 08:14:38;;;;;;;20.75;10.75;;;;;;;;;;4895986;29;20104;-62
2021/12/21 08:17:04;;;;;;;17.42;10.15;;;;;;;;;;4897447;29;20072;-63
2021/12/21 08:19:30;;;;;;;18.70;9.18;;;;;;;;;;4897367;29;20061;-62
2021/12/21 08:21:56;;;;;;;15.07;8.68;;;;;;;;;;4897013;29;20036;-62
2021/12/21 08:24:25;;;;;;;15.30;8.38;;;;;;;;;;4896554;29;20040;-62
2021/12/21 08:26:51;;;;;;;18.65;9.55;;;;;;;;;;4897979;29;20503;-63
2021/12/21 08:29:17;;;;;;;48.13;23.08;;;;;;;;;;4898441;29;20036;-63
2021/12/21 08:31:43;;;;;;;69.53;35.22;;;;;;;;;;4898272;29;20520;-63
2021/12/21 08:34:15;;;;;;;31.55;18.05;;;;;;;;;;4898523;29;20028;-63
2021/12/21 08:36:41;;;;;;;15.73;9.27;;;;;;;;;;4898376;29;20080;-63
2021/12/21 08:39:08;;;;;;;12.45;7.82;;;;;;;;;;4897961;29;20044;-63
2021/12/21 08:41:39;;;;;;;12.02;7.78;;;;;;;;;;4898132;29;20104;-63
2021/12/21 08:44:05;;;;;;;16.95;8.60;;;;;;;;;;4898437;29;20481;-63
2021/12/21 08:46:32;;;;;;;16.33;9.00;;;;;;;;;;4898480;29;20576;-63
2021/12/21 08:48:58;;;;;;;16.38;8.90;;;;;;;;;;4896885;29;20390;-63
2021/12/21 08:51:24;;;;;;;25.10;13.05;;;;;;;;;;4898326;29;20032;-63
2021/12/21 08:53:50;;;;;;;24.92;13.25;;;;;;;;;;4898008;29;20045;-63
2021/12/21 08:56:16;;;;;;;21.58;10.05;;;;;;;;;;4897825;29;20048;-63
2021/12/21 08:58:42;;;;;;;16.55;9.10;;;;;;;;;;4896930;29;20485;-63
2021/12/21 09:01:08;;;;;;;17.55;9.30;;;;;;;;;;4898041;29;20037;-63
2021/12/21 09:03:34;;;;;;;14.05;8.43;;;;;;;;;;4897937;29;20029;-63
2021/12/21 09:06:01;;;;;;;24.90;14.68;;;;;;;;;;4897979;29;20035;-63
2021/12/21 09:08:27;;;;;;;19.60;12.40;;;;;;;;;;4897808;29;20052;-63
2021/12/21 09:10:54;;;;;;;23.25;10.80;;;;;;;;;;4897126;29;20047;-62
2021/12/21 09:13:20;;;;;;;16.08;10.85;;;;;;;;;;4896038;29;20019;-62
2021/12/21 09:15:46;;;;;;;19.30;11.82;;;;;;;;;;4896287;29;20037;-63
2021/12/21 09:18:13;;;;;;;15.75;9.63;;;;;;;;;;4896613;29;20028;-63
2021/12/21 09:20:39;;;;;;;16.13;10.45;;;;;;;;;;4893789;29;20024;-63
2021/12/21 09:23:05;;;;;;;12.85;7.57;;;;;;;;;;4895879;29;20055;-63
2021/12/21 09:25:31;;;;;;;13.00;7.68;;;;;;;;;;4896388;29;20072;-66
2021/12/21 09:27:58;;;;;;;11.60;7.50;;;;;;;;;;4896434;29;20057;-62
2021/12/21 09:30:25;;;;;;;13.40;8.07;;;;;;;;;;4896237;29;20470;-63
2021/12/21 09:32:51;;;;;;;15.63;8.18;;;;;;;;;;4896189;29;20180;-63
2021/12/21 09:35:18;;;;;;;14.13;8.00;;;;;;;;;;4896138;29;20032;-62
2021/12/21 09:37:45;;;;;;;17.63;7.93;;;;;;;;;;4896465;29;20438;-61
2021/12/21 09:40:13;;;;;;;13.70;7.32;;;;;;;;;;4897136;29;20033;-62
2021/12/21 09:42:39;;;;;;;12.80;7.38;;;;;;;;;;4895771;29;20141;-59
2021/12/21 09:45:05;;;;;;;14.85;7.32;;;;;;;;;;4896069;29;20033;-61
2021/12/21 09:47:32;;;;;;;11.77;7.30;;;;;;;;;;4895826;29;20032;-62
2021/12/21 09:49:58;;;;;;;32.50;17.80;;;;;;;;;;4896242;29;20543;-60
2021/12/21 09:52:29;;;;;;;106.55;53.80;;;;;;;;;;4896561;29;20366;-60
2021/12/21 09:54:55;;;;;;;45.50;23.80;;;;;;;;;;4896730;29;20028;-61
2021/12/21 09:57:22;;;;;;;28.23;15.20;;;;;;;;;;4896848;29;20044;-60
2021/12/21 09:59:49;;;;;;;21.40;12.93;;;;;;;;;;4896946;29;20477;-61
2021/12/21 10:02:18;;;;;;;18.08;11.15;;;;;;;;;;4896938;29;20500;-60
2021/12/21 10:04:52;;;;;;;18.38;11.02;;;;;;;;;;4896277;29;20028;-60
2021/12/21 10:07:19;;;;;;;14.10;7.82;;;;;;;;;;4896752;29;20060;-61
2021/12/21 10:09:47;;;;;;;16.60;9.52;;;;;;;;;;4896572;29;20029;-59
2021/12/21 10:12:33;;;;;;;22.17;11.30;;;;;;;;;;4896698;29;20056;-60
2021/12/21 10:15:08;;;;;;;17.92;10.88;;;;;;;;;;4896536;29;20099;-59
2021/12/21 10:17:35;;;;;;;16.48;9.15;;;;;;;;;;4896544;29;20032;-61
2021/12/21 10:20:09;;;;;;;15.23;9.05;;;;;;;;;;4896091;29;20036;-61
2021/12/21 10:22:37;;;;;;;13.52;8.32;;;;;;;;;;4896092;29;20048;-61
2021/12/21 10:25:04;;;;;;;14.25;8.77;;;;;;;;;;4895700;29;20044;-61
2021/12/21 10:27:30;;;;;;;14.77;8.48;;;;;;;;;;4895819;29;20034;-61
2021/12/21 10:29:57;;;;;;;15.43;8.02;;;;;;;;;;4895829;29;20108;-60
2021/12/21 10:32:25;;;;;;;15.18;7.95;;;;;;;;;;4896301;29;20769;-59
2021/12/21 10:34:52;;;;;;;13.93;8.65;;;;;;;;;;4894670;29;20036;-60
2021/12/21 10:37:27;;;;;;;12.45;8.00;;;;;;;;;;4895802;29;20041;-59
2021/12/21 10:40:17;;;;;;;14.57;8.60;;;;;;;;;;4896121;29;20029;-59
2021/12/21 10:42:49;;;;;;;15.40;7.80;;;;;;;;;;4895785;29;20024;-60
2021/12/21 10:45:16;;;;;;;14.40;8.38;;;;;;;;;;4896294;29;20036;-60
2021/12/21 10:47:46;;;;;;;18.38;9.52;;;;;;;;;;4896045;29;20445;-60
2021/12/21 10:50:13;;;;;;;17.30;10.43;;;;;;;;;;4896058;29;20028;-62
2021/12/21 10:52:40;;;;;;;21.77;10.20;;;;;;;;;;4895753;29;20028;-60
2021/12/21 10:55:06;;;;;;;16.88;9.60;;;;;;;;;;4895981;29;20438;-59
2021/12/21 10:57:33;;;;;;;14.00;8.70;;;;;;;;;;4895217;29;20520;-59
2021/12/21 11:00:14;;;;;;;17.35;8.82;;;;;;;;;;4895980;29;20111;-60
2021/12/21 11:02:41;;;;;;;16.88;8.70;;;;;;;;;;4895624;29;20056;-60
2021/12/21 11:05:25;;;;;;;13.30;8.80;;;;;;;;;;4895558;29;20021;-60
2021/12/21 11:10:25;;;;;;;17.23;9.13;;;;;;;;;;4895915;29;20456;-60
2021/12/21 11:12:53;;;;;;;17.70;8.77;;;;;;;;;;4895524;29;20043;-60
2021/12/21 11:15:20;;;;;;;16.08;9.38;;;;;;;;;;4895181;29;20032;-59
2021/12/21 11:17:46;;;;;;;16.75;9.50;;;;;;;;;;4895416;29;20119;-60
2021/12/21 11:20:13;;;;;;;19.13;9.63;;;;;;;;;;4895772;29;20556;-61
2021/12/21 11:22:41;;;;;;;18.75;9.05;;;;;;;;;;4894510;29;20052;-61
2021/12/21 11:25:08;;;;;;;16.05;9.65;;;;;;;;;;4895367;29;20108;-60
2021/12/21 11:27:35;;;;;;;16.05;9.55;;;;;;;;;;4894299;29;20119;-60
2021/12/21 11:30:03;;;;;;;17.40;9.70;;;;;;;;;;4894593;29;20485;-61
2021/12/21 11:32:30;;;;;;;15.68;8.80;;;;;;;;;;4894413;29;20044;-61
2021/12/21 11:37:47;;;;;;;18.40;10.82;;;;;;;;;;4839498;29;20075;-60
2021/12/21 11:40:14;;;;;;;13.80;8.85;;;;;;;;;;4840210;29;20034;-60
2021/12/21 11:42:50;;;;;;;14.30;8.75;;;;;;;;;;4846615;29;20069;-60
2021/12/21 11:45:37;;;;;;;15.18;8.73;;;;;;;;;;4846099;29;20029;-59
2021/12/21 11:48:12;;;;;;;14.27;8.57;;;;;;;;;;4844399;29;20038;-60
2021/12/21 11:50:40;;;;;;;14.57;9.02;;;;;;;;;;4851179;29;20045;-59
2021/12/21 11:53:07;;;;;;;15.30;9.75;;;;;;;;;;4849527;29;20040;-60
2021/12/21 11:55:34;;;;;;;16.08;9.60;;;;;;;;;;4849148;29;20163;-60
2021/12/21 11:58:02;;;;;;;20.42;10.48;;;;;;;;;;4847869;29;20040;-61
2021/12/21 12:00:30;;;;;;;14.55;9.20;;;;;;;;;;4849492;29;20777;-60
2021/12/21 12:03:08;;;;;;;16.13;9.05;;;;;;;;;;4849310;29;20037;-61
2021/12/21 12:05:34;;;;;;;13.10;7.57;;;;;;;;;;4848923;29;20022;-60
2021/12/21 12:08:03;;;;;;;14.35;8.30;;;;;;;;;;4847291;29;20046;-59
2021/12/21 12:10:29;;;;;;;16.33;8.68;;;;;;;;;;4846732;29;20030;-60
2021/12/21 12:13:06;;;;;;;14.88;8.80;;;;;;;;;;4847149;29;20223;-60
2021/12/21 12:15:40;;;;;;;17.10;9.18;;;;;;;;;;4885116;29;20145;-60
2021/12/21 12:18:06;;;;;;;13.32;8.15;;;;;;;;;;4892302;29;20100;-60
2021/12/21 12:20:32;;;;;;;12.73;8.57;;;;;;;;;;4898123;29;20033;-60
2021/12/21 12:23:06;;;;;;;11.93;8.00;;;;;;;;;;4898264;29;20058;-58
2021/12/21 12:25:32;;;;;;;14.80;8.38;;;;;;;;;;4897930;29;20043;-63
2021/12/21 12:27:59;;;;;;;17.15;8.82;;;;;;;;;;4898217;29;20044;-63
2021/12/21 12:30:26;;;;;;;14.05;8.65;;;;;;;;;;4898334;29;20092;-63
2021/12/21 12:32:55;;;;;;;14.55;9.18;;;;;;;;;;4897634;29;20027;-62
2021/12/21 12:35:29;;;;;;;12.18;8.23;;;;;;;;;;4897747;29;20389;-62
2021/12/21 12:37:57;;;;;;;13.65;8.55;;;;;;;;;;4894876;29;20378;-63
2021/12/21 12:40:29;;;;;;;13.57;7.85;;;;;;;;;;4896955;29;20073;-62
2021/12/21 12:42:55;;;;;;;16.60;8.10;;;;;;;;;;4897301;29;20041;-63
2021/12/21 12:45:22;;;;;;;13.30;8.40;;;;;;;;;;4897614;29;20032;-63
2021/12/21 12:47:52;;;;;;;15.65;8.57;;;;;;;;;;4895425;29;20068;-62
2021/12/21 12:50:29;;;;;;;13.73;8.13;;;;;;;;;;4896244;29;20043;-62
2021/12/21 12:53:01;;;;;;;15.63;8.75;;;;;;;;;;4894560;29;20029;-63
2021/12/21 12:55:37;;;;;;;20.27;11.25;;;;;;;;;;4896338;29;20033;-62
2021/12/21 12:58:05;;;;;;;16.25;10.13;;;;;;;;;;4896438;29;20370;-63
2021/12/21 13:00:32;;;;;;;18.52;10.25;;;;;;;;;;4893577;29;20036;-63
2021/12/21 13:03:07;;;;;;;58.60;25.67;;;;;;;;;;4895677;29;20064;-62
2021/12/21 13:05:37;;;;;;;42.03;20.55;;;;;;;;;;4895194;29;20083;-64
2021/12/21 13:08:14;;;;;;;17.42;9.05;;;;;;;;;;4895677;29;20032;-63
2021/12/21 13:10:42;;;;;;;14.00;8.13;;;;;;;;;;4895584;29;20041;-63
2021/12/21 13:13:08;;;;;;;11.88;7.70;;;;;;;;;;4895543;29;20029;-63
2021/12/21 13:15:43;;;;;;;14.85;7.88;;;;;;;;;;4894895;29;20036;-63
2021/12/21 13:18:12;;;;;;;13.02;7.88;;;;;;;;;;4896087;29;20039;-64
2021/12/21 13:20:40;;;;;;;14.60;8.50;;;;;;;;;;4895903;29;20114;-62
2021/12/21 13:23:16;;;;;;;12.98;8.23;;;;;;;;;;4895986;29;20072;-63
2021/12/21 13:26:04;;;;;;;13.55;8.13;;;;;;;;;;4876317;29;20048;-61
2021/12/21 13:28:35;;;;;;;13.18;6.80;;;;;;;;;;4894510;29;20021;-64
2021/12/21 13:31:04;;;;;;;19.85;7.07;;;;;;;;;;4893403;29;20432;-61
2021/12/21 13:33:31;;;;;;;15.88;8.20;;;;;;;;;;4896070;29;20055;-62
2021/12/21 13:36:05;;;;;;;12.18;7.32;;;;;;;;;;4897052;29;20477;-62
2021/12/21 13:38:31;;;;;;;10.48;6.55;;;;;;;;;;4896450;29;20037;-63
2021/12/21 13:40:59;;;;;;;10.98;6.72;;;;;;;;;;4897082;29;20036;-61
2021/12/21 13:43:25;;;;;;;12.02;6.30;;;;;;;;;;4896901;29;20036;-61
2021/12/21 13:45:57;;;;;;;12.93;7.28;;;;;;;;;;4897160;29;20067;-64
2021/12/21 13:48:23;;;;;;;13.20;7.60;;;;;;;;;;4896824;29;20033;-61
2021/12/21 13:50:51;;;;;;;13.75;7.72;;;;;;;;;;4896569;29;20039;-62
2021/12/21 13:53:19;;;;;;;12.70;7.03;;;;;;;;;;4896787;29;20060;-62
2021/12/21 13:55:45;;;;;;;14.18;8.23;;;;;;;;;;4896402;29;20127;-61
2021/12/21 13:58:12;;;;;;;14.85;7.43;;;;;;;;;;4896412;29;20024;-65
2021/12/21 14:00:43;;;;;;;16.08;7.97;;;;;;;;;;4896443;29;20034;-64
2021/12/21 14:03:20;;;;;;;14.55;8.07;;;;;;;;;;4895586;29;20389;-63
2021/12/21 14:05:54;;;;;;;12.57;7.78;;;;;;;;;;4893774;29;20036;-63
2021/12/21 14:08:20;;;;;;;14.10;7.85;;;;;;;;;;4893850;29;20040;-67
2021/12/21 14:10:51;;;;;;;14.50;8.15;;;;;;;;;;4896263;29;20040;-62
2021/12/21 14:13:18;;;;;;;15.68;8.55;;;;;;;;;;4896749;29;20029;-62
2021/12/21 14:15:45;;;;;;;16.67;8.90;;;;;;;;;;4896570;29;20028;-63
2021/12/21 14:18:15;;;;;;;14.65;8.13;;;;;;;;;;4896326;29;20065;-62
2021/12/21 14:20:41;;;;;;;14.80;8.05;;;;;;;;;;4896188;29;20095;-62
2021/12/21 14:23:08;;;;;;;11.75;7.50;;;;;;;;;;4895454;29;20417;-62
2021/12/21 14:25:34;;;;;;;17.20;9.07;;;;;;;;;;4896096;29;20084;-62
2021/12/21 14:28:09;;;;;;;20.42;8.15;;;;;;;;;;4895882;29;20033;-61
2021/12/21 14:30:36;;;;;;;16.70;8.60;;;;;;;;;;4895308;29;20512;-60
2021/12/21 14:33:28;;;;;;;14.10;7.97;;;;;;;;;;4895949;29;20025;-60
2021/12/21 14:35:58;;;;;;;17.92;9.75;;;;;;;;;;4895849;29;20080;-63
2021/12/21 14:38:24;;;;;;;15.77;8.85;;;;;;;;;;4896263;29;20131;-61
2021/12/21 14:40:51;;;;;;;17.08;8.90;;;;;;;;;;4896432;29;20025;-60
2021/12/21 14:43:31;;;;;;;14.25;8.30;;;;;;;;;;4887315;29;20092;-61
2021/12/21 14:45:58;;;;;;;17.60;8.02;;;;;;;;;;4885241;29;20396;-62
2021/12/21 14:48:25;;;;;;;14.98;8.60;;;;;;;;;;4895836;29;20025;-62
2021/12/21 14:50:54;;;;;;;17.42;8.90;;;;;;;;;;4894718;29;20337;-62
2021/12/21 14:53:21;;;;;;;17.48;8.73;;;;;;;;;;4892125;29;20024;-63
2021/12/21 14:55:48;;;;;;;16.85;8.50;;;;;;;;;;4895514;29;20048;-61
2021/12/21 14:58:18;;;;;;;16.77;8.35;;;;;;;;;;4895540;29;20052;-61
2021/12/21 15:00:52;;;;;;;19.58;9.57;;;;;;;;;;4895261;29;20469;-63
2021/12/21 15:03:18;;;;;;;17.05;9.52;;;;;;;;;;4895420;29;20461;-61
2021/12/21 15:05:45;;;;;;;22.30;11.82;;;;;;;;;;4895496;29;20469;-60
2021/12/21 15:08:14;;;;;;;18.42;9.35;;;;;;;;;;4895599;29;20107;-61
2021/12/21 15:10:44;;;;;;;21.13;9.57;;;;;;;;;;4895040;29;20028;-62
2021/12/21 15:13:12;;;;;;;16.67;9.77;;;;;;;;;;4895147;29;20037;-61
2021/12/21 15:15:38;;;;;;;20.30;9.93;;;;;;;;;;4895205;29;20051;-64
2021/12/21 15:18:07;;;;;;;17.38;9.55;;;;;;;;;;4895156;29;20093;-64
2021/12/21 15:20:33;;;;;;;19.50;9.27;;;;;;;;;;4895303;29;20035;-64
2021/12/21 15:22:59;;;;;;;16.08;9.32;;;;;;;;;;4894811;29;20057;-63
2021/12/21 15:25:25;;;;;;;19.15;10.60;;;;;;;;;;4893909;29;20504;-62
2021/12/21 15:27:52;;;;;;;22.45;9.40;;;;;;;;;;4895108;29;20048;-62
2021/12/21 15:30:20;;;;;;;18.02;9.30;;;;;;;;;;4893634;29;20039;-63
2021/12/21 15:32:47;;;;;;;16.42;8.63;;;;;;;;;;4895144;29;20480;-64
2021/12/21 15:35:14;;;;;;;15.40;8.52;;;;;;;;;;4894956;29;20107;-64
2021/12/21 15:37:40;;;;;;;14.30;8.70;;;;;;;;;;4895435;29;20119;-62
2021/12/21 15:40:09;;;;;;;17.80;8.90;;;;;;;;;;4894888;29;20025;-61
2021/12/21 15:42:37;;;;;;;17.48;8.80;;;;;;;;;;4895261;29;20032;-62
2021/12/21 15:45:04;;;;;;;16.83;9.73;;;;;;;;;;4894965;29;20100;-62
2021/12/21 15:47:30;;;;;;;19.10;9.48;;;;;;;;;;4894550;29;20033;-63
2021/12/21 15:49:56;;;;;;;25.08;12.50;;;;;;;;;;4894964;29;20494;-60